Time;durP1;ratioP1;P1;durP2;ratioP2;P2;SDS_P1;SDS_P2;PMS_P1;PMS_P2;Temp;Humidity;BMP_temperature;BMP_pressure;BME280_temperature;BME280_humidity;BME280_pressure;Samples;Min_cycle;Max_cycle;Signal;HPM_P1;HPM_P2
2023/06/11 00:04:34;;;;;;;9.68;4.93;;;;;;;11.06;100.00;96745.28;10577233;28;20201;-67
2023/06/11 00:09:35;;;;;;;8.80;5.43;;;;;;;10.95;100.00;96745.59;10577188;28;20218;-66
2023/06/11 00:14:35;;;;;;;11.27;4.93;;;;;;;10.92;100.00;96729.34;10578817;28;20193;-66
2023/06/11 00:19:36;;;;;;;7.53;4.25;;;;;;;10.89;100.00;96738.34;10584993;28;20201;-67
2023/06/11 00:24:36;;;;;;;6.70;5.03;;;;;;;10.82;100.00;96726.84;10584703;28;20196;-67
2023/06/11 00:29:37;;;;;;;6.53;4.53;;;;;;;10.86;100.00;96722.94;10584842;28;20302;-67
2023/06/11 00:34:37;;;;;;;8.20;4.60;;;;;;;10.83;100.00;96734.56;10584666;28;20190;-67
2023/06/11 00:39:37;;;;;;;5.75;4.45;;;;;;;10.84;100.00;96723.09;10584183;28;20258;-67
2023/06/11 00:44:40;;;;;;;7.07;4.32;;;;;;;10.82;100.00;96721.63;10566269;28;20193;-66
2023/06/11 00:49:40;;;;;;;5.47;4.10;;;;;;;10.78;100.00;96718.50;10565173;28;20233;-66
2023/06/11 00:54:41;;;;;;;8.07;4.03;;;;;;;10.80;99.39;96726.19;10565877;28;20186;-66
2023/06/11 00:59:42;;;;;;;6.87;4.57;;;;;;;10.71;98.32;96720.91;10583137;28;20538;-66
2023/06/11 01:04:44;;;;;;;7.78;4.10;;;;;;;10.68;97.68;96718.59;10583199;28;20198;-66
2023/06/11 01:09:45;;;;;;;5.57;4.25;;;;;;;10.66;95.81;96719.75;10583279;28;20221;-66
2023/06/11 01:14:46;;;;;;;8.03;4.67;;;;;;;10.53;97.55;96735.88;10564550;28;20170;-66
2023/06/11 01:20:12;;;;;;;11.63;4.07;;;;;;;10.31;100.00;96747.69;10564588;28;20817;-66
2023/06/11 01:25:44;;;;;;;5.73;4.27;;;;;;;10.03;100.00;96747.81;10563100;28;20251;-66
2023/06/11 01:30:48;;;;;;;13.03;4.20;;;;;;;9.63;100.00;96752.56;10564153;28;20691;-67
2023/06/11 01:35:48;;;;;;;10.20;4.10;;;;;;;9.51;100.00;96758.13;10547098;28;20186;-67
2023/06/11 01:40:50;;;;;;;10.20;4.07;;;;;;;9.43;100.00;96761.50;10563718;28;20629;-67
2023/06/11 01:45:51;;;;;;;4.17;3.37;;;;;;;9.41;100.00;96761.66;10563166;28;20214;-66
2023/06/11 01:50:51;;;;;;;7.87;4.30;;;;;;;9.41;100.00;96763.44;10479806;22;20244;-65
2023/06/11 01:55:52;;;;;;;6.63;3.93;;;;;;;9.40;100.00;96761.78;10412592;28;20223;-65
2023/06/11 02:00:53;;;;;;;16.13;4.27;;;;;;;9.28;100.00;96758.59;10415252;28;20208;-66
2023/06/11 02:05:53;;;;;;;4.93;3.70;;;;;;;9.34;100.00;96758.00;10418397;28;20648;-65
2023/06/11 02:10:54;;;;;;;8.90;4.40;;;;;;;9.25;100.00;96754.47;10412470;28;20217;-65
2023/06/11 02:15:55;;;;;;;8.27;4.03;;;;;;;9.19;100.00;96756.81;10412737;28;20201;-65
2023/06/11 02:20:55;;;;;;;4.63;3.53;;;;;;;9.11;100.00;96747.09;10412348;28;20231;-64
2023/06/11 02:25:55;;;;;;;6.30;3.63;;;;;;;9.06;100.00;96757.19;10412158;28;20212;-65
2023/06/11 02:30:56;;;;;;;5.57;3.83;;;;;;;9.11;100.00;96752.34;10413015;28;20217;-65
2023/06/11 02:35:57;;;;;;;5.40;3.97;;;;;;;9.24;100.00;96742.34;10411780;28;20189;-64
2023/06/11 02:40:57;;;;;;;8.83;3.90;;;;;;;9.20;100.00;96741.00;10412704;28;20219;-65
2023/06/11 02:45:57;;;;;;;9.00;3.90;;;;;;;9.01;100.00;96756.81;10412488;28;20216;-65
2023/06/11 02:50:58;;;;;;;8.50;4.70;;;;;;;8.92;100.00;96756.69;10400898;28;20236;-67
2023/06/11 02:55:58;;;;;;;6.07;3.80;;;;;;;8.80;100.00;96776.13;10412318;28;20212;-67
2023/06/11 03:00:58;;;;;;;4.83;3.60;;;;;;;8.77;100.00;96765.97;10412179;28;20216;-67
2023/06/11 03:05:59;;;;;;;6.70;4.30;;;;;;;8.80;100.00;96777.94;10425830;28;20247;-66
2023/06/11 03:11:00;;;;;;;4.70;3.87;;;;;;;8.70;100.00;96777.97;10434393;28;20208;-65
2023/06/11 03:16:01;;;;;;;9.67;4.07;;;;;;;8.61;100.00;96765.78;10434394;28;20188;-67
2023/06/11 03:21:01;;;;;;;5.97;3.53;;;;;;;8.55;100.00;96781.03;10434349;28;20203;-66
2023/06/11 03:26:02;;;;;;;5.03;4.07;;;;;;;8.50;100.00;96791.09;10434751;28;20211;-66
2023/06/11 03:31:09;;;;;;;7.43;3.87;;;;;;;8.50;100.00;96785.03;10434530;28;20694;-67
2023/06/11 03:36:10;;;;;;;5.33;3.53;;;;;;;8.47;100.00;96774.88;10434386;28;20195;-66
2023/06/11 03:41:10;;;;;;;9.23;4.37;;;;;;;8.53;100.00;96777.75;10434290;28;20214;-67
2023/06/11 03:46:11;;;;;;;9.30;4.17;;;;;;;8.66;100.00;96771.38;10434124;28;20611;-66
2023/06/11 03:51:13;;;;;;;7.17;4.27;;;;;;;8.78;100.00;96770.25;10414279;28;20228;-66
2023/06/11 03:56:13;;;;;;;7.17;4.07;;;;;;;8.92;100.00;96771.56;10419250;28;20195;-66
2023/06/11 04:01:14;;;;;;;6.67;4.17;;;;;;;9.03;100.00;96781.00;10418765;28;20223;-65
2023/06/11 04:06:16;;;;;;;7.00;4.17;;;;;;;9.08;100.00;96781.38;10417688;28;20218;-65
2023/06/11 04:11:16;;;;;;;13.77;4.30;;;;;;;9.10;100.00;96777.66;10417239;28;20606;-66
2023/06/11 04:16:17;;;;;;;7.00;3.60;;;;;;;9.15;100.00;96785.06;10417460;28;20198;-66
2023/06/11 04:21:18;;;;;;;5.50;3.97;;;;;;;9.27;100.00;96781.28;10417136;28;20208;-65
2023/06/11 04:26:23;;;;;;;11.83;4.13;;;;;;;9.41;100.00;96774.72;10418335;28;20231;-65
2023/06/11 04:31:26;;;;;;;6.17;3.90;;;;;;;9.60;100.00;96784.25;10416833;28;20221;-66
2023/06/11 04:36:27;;;;;;;6.73;3.80;;;;;;;9.75;100.00;96783.72;10416589;28;20185;-66
2023/06/11 04:41:29;;;;;;;8.27;3.70;;;;;;;9.92;100.00;96776.81;10416536;28;20213;-65
2023/06/11 04:46:32;;;;;;;5.97;3.90;;;;;;;10.26;100.00;96784.81;10416157;28;20216;-65
2023/06/11 04:51:34;;;;;;;6.30;4.07;;;;;;;10.47;99.65;96775.78;10415762;28;20355;-65
2023/06/11 04:56:34;;;;;;;6.27;4.07;;;;;;;10.75;98.13;96771.22;10415837;28;20227;-66
2023/06/11 05:01:37;;;;;;;6.47;3.90;;;;;;;11.10;95.80;96776.44;10415081;28;20220;-65
2023/06/11 05:06:44;;;;;;;13.30;4.13;;;;;;;11.40;94.98;96770.63;10415561;28;20630;-66
2023/06/11 05:11:45;;;;;;;6.00;3.95;;;;;;;11.66;93.35;96761.03;10415065;28;20239;-66
2023/06/11 05:16:50;;;;;;;4.72;3.90;;;;;;;11.99;91.44;96756.66;10414804;28;20189;-65
2023/06/11 05:21:51;;;;;;;5.28;3.45;;;;;;;12.28;89.22;96744.78;10416276;28;20254;-64
2023/06/11 05:26:56;;;;;;;9.23;4.15;;;;;;;12.68;88.20;96756.22;10414311;28;20227;-65
2023/06/11 05:31:57;;;;;;;4.63;3.50;;;;;;;12.72;85.57;96735.66;10414354;28;20650;-65
2023/06/11 05:36:58;;;;;;;6.20;3.70;;;;;;;13.17;85.24;96755.22;10414280;28;20220;-65
2023/06/11 05:41:58;;;;;;;4.65;3.45;;;;;;;13.52;83.89;96748.66;10414973;28;20771;-66
2023/06/11 05:46:59;;;;;;;8.18;4.18;;;;;;;14.05;81.60;96740.03;10413899;28;20227;-65
2023/06/11 05:52:00;;;;;;;7.65;4.00;;;;;;;14.57;77.71;96720.75;10413196;28;20650;-66
2023/06/11 05:57:00;;;;;;;7.35;3.90;;;;;;;15.01;75.11;96726.22;10413602;28;20234;-66
2023/06/11 06:02:02;;;;;;;6.57;4.00;;;;;;;15.82;72.87;96705.78;10413033;28;20232;-67
2023/06/11 06:07:04;;;;;;;8.32;4.75;;;;;;;16.27;71.40;96702.88;10412809;28;20631;-66
2023/06/11 06:12:05;;;;;;;8.48;4.18;;;;;;;16.96;71.96;96730.38;10412375;28;20307;-66
2023/06/11 06:17:06;;;;;;;9.23;3.90;;;;;;;17.80;70.93;96739.81;10412604;28;20189;-67
2023/06/11 06:22:11;;;;;;;5.07;3.97;;;;;;;18.54;67.52;96721.28;10413002;28;20227;-67
2023/06/11 06:27:11;;;;;;;5.40;3.70;;;;;;;19.15;66.23;96722.75;10412329;28;20227;-66
2023/06/11 06:32:12;;;;;;;6.63;4.07;;;;;;;19.19;65.42;96717.88;10411847;28;20208;-63
2023/06/11 06:37:12;;;;;;;8.00;3.30;;;;;;;20.83;59.94;96663.84;10413191;28;20185;-64
2023/06/11 06:42:16;;;;;;;6.97;3.70;;;;;;;21.51;57.39;96656.63;10411258;28;20209;-65
2023/06/11 06:47:22;;;;;;;8.27;3.97;;;;;;;23.03;52.36;96616.75;10411366;28;20231;-65
2023/06/11 06:52:22;;;;;;;3.88;3.42;;;;;;;23.84;49.46;96589.88;10410960;28;20768;-65
2023/06/11 06:57:23;;;;;;;5.43;3.85;;;;;;;23.32;49.45;96582.88;10411096;28;20311;-65
2023/06/11 07:02:23;;;;;;;5.03;4.10;;;;;;;23.37;49.13;96586.66;10410771;28;20216;-65
2023/06/11 07:07:24;;;;;;;4.55;4.07;;;;;;;24.18;47.76;96581.81;10410636;28;20312;-64
2023/06/11 07:12:26;;;;;;;11.13;4.72;;;;;;;24.90;45.53;96560.44;10410545;28;20242;-63
2023/06/11 07:17:27;;;;;;;9.18;4.13;;;;;;;24.64;46.58;96580.78;10410555;28;20192;-65
2023/06/11 07:22:28;;;;;;;5.95;4.25;;;;;;;23.30;51.17;96637.59;10410103;28;20211;-64
2023/06/11 07:27:29;;;;;;;9.05;4.78;;;;;;;24.44;48.89;96633.03;10409409;28;20721;-65
2023/06/11 07:32:30;;;;;;;5.85;4.47;;;;;;;24.09;49.16;96628.78;10409900;28;20208;-65
2023/06/11 07:37:31;;;;;;;7.80;4.28;;;;;;;23.91;49.24;96626.38;10409887;28;20189;-65
2023/06/11 07:42:32;;;;;;;10.02;4.70;;;;;;;23.04;50.70;96630.94;10410192;28;20214;-65
2023/06/11 07:47:33;;;;;;;5.22;3.85;;;;;;;24.32;49.83;96651.88;10410314;28;20230;-65
2023/06/11 07:52:34;;;;;;;13.48;4.50;;;;;;;24.70;47.96;96636.03;10390618;23;20251;-67
2023/06/11 07:57:43;;;;;;;9.65;6.32;;;;;;;24.67;51.33;96698.16;10368889;28;20185;-68
2023/06/11 08:02:46;;;;;;;7.13;4.18;;;;;;;25.06;49.30;96674.00;10369878;28;20213;-68
2023/06/11 08:07:47;;;;;;;9.68;3.65;;;;;;;24.99;48.79;96649.25;10369697;28;20213;-69
2023/06/11 08:12:48;;;;;;;4.88;4.07;;;;;;;25.16;47.02;96617.84;10368374;28;20224;-69
2023/06/11 08:17:48;;;;;;;5.70;4.00;;;;;;;24.57;49.60;96656.78;10369740;28;20190;-69
2023/06/11 08:22:48;;;;;;;8.73;5.23;;;;;;;25.30;50.07;96679.94;10369511;28;20213;-69
2023/06/11 08:27:50;;;;;;;6.18;4.00;;;;;;;25.72;47.73;96638.22;10369632;28;20503;-69
2023/06/11 08:32:51;;;;;;;7.32;4.53;;;;;;;25.57;47.84;96653.09;10369593;28;20224;-69
2023/06/11 08:37:51;;;;;;;8.20;4.60;;;;;;;25.54;49.48;96683.13;10374526;28;20655;-69
2023/06/11 08:42:51;;;;;;;8.13;4.57;;;;;;;25.14;49.47;96664.72;10376439;28;20473;-69
2023/06/11 08:47:55;;;;;;;4.53;3.85;;;;;;;26.12;46.83;96639.63;10376054;28;20993;-69
2023/06/11 08:53:00;;;;;;;7.95;3.90;;;;;;;25.41;48.74;96659.41;10374841;28;20750;-69
2023/06/11 08:58:00;;;;;;;7.25;4.55;;;;;;;26.11;46.27;96619.22;10376169;28;20193;-69
2023/06/11 09:03:01;;;;;;;5.32;4.38;;;;;;;26.34;45.55;96613.47;10374602;28;20193;-69
2023/06/11 09:08:07;;;;;;;4.75;3.60;;;;;;;25.86;45.25;96599.16;10375663;28;20223;-68
2023/06/11 09:13:07;;;;;;;5.45;4.47;;;;;;;25.30;47.60;96625.47;10375458;28;20742;-69
2023/06/11 09:18:08;;;;;;;6.63;4.75;;;;;;;26.53;45.48;96619.19;10375140;28;20344;-69
2023/06/11 09:23:08;;;;;;;10.45;4.68;;;;;;;26.90;43.28;96569.09;10373869;28;20201;-70
2023/06/11 09:28:09;;;;;;;6.65;4.30;;;;;;;26.76;44.48;96608.31;10374342;28;20221;-69
2023/06/11 09:33:19;;;;;;;6.28;4.00;;;;;;;26.71;43.99;96601.03;10374663;28;20195;-69
2023/06/11 09:38:20;;;;;;;7.80;4.00;;;;;;;26.12;42.33;96533.03;10374460;28;20189;-67
2023/06/11 09:43:22;;;;;;;6.50;4.18;;;;;;;26.44;43.31;96575.09;10373843;28;20190;-68
2023/06/11 09:48:23;;;;;;;7.60;4.18;;;;;;;26.58;42.03;96545.84;10373874;28;20228;-68
2023/06/11 09:53:24;;;;;;;6.35;4.32;;;;;;;26.40;44.73;96621.53;10407701;28;20203;-69
2023/06/11 09:58:24;;;;;;;7.35;3.97;;;;;;;26.85;42.42;96577.16;10409630;28;20228;-69
2023/06/11 10:03:24;;;;;;;5.10;3.83;;;;;;;26.53;42.76;96575.41;10412954;28;20192;-68
2023/06/11 10:08:30;;;;;;;8.13;3.85;;;;;;;27.72;38.40;96522.66;10413974;28;20471;-68
2023/06/11 10:13:32;;;;;;;5.15;3.75;;;;;;;28.35;39.75;96569.94;10396479;28;20193;-68
2023/06/11 10:18:32;;;;;;;5.95;3.60;;;;;;;27.94;38.29;96522.34;10395591;28;20212;-68
2023/06/11 10:23:40;;;;;;;4.70;3.70;;;;;;;26.70;39.70;96510.72;10413007;28;20215;-68
2023/06/11 10:28:45;;;;;;;4.63;3.60;;;;;;;26.65;41.38;96565.22;10413377;28;20220;-68
2023/06/11 10:33:45;;;;;;;5.38;3.78;;;;;;;26.55;41.07;96532.94;10411658;28;20693;-69
2023/06/11 10:38:45;;;;;;;4.25;3.42;;;;;;;27.22;40.34;96555.44;10412566;28;20201;-68
2023/06/11 10:43:46;;;;;;;3.70;3.40;;;;;;;28.29;39.88;96574.53;10412561;28;20200;-68
2023/06/11 10:48:51;;;;;;;7.35;3.33;;;;;;;29.04;39.25;96586.41;10411997;28;20483;-68
2023/06/11 10:53:56;;;;;;;4.13;3.72;;;;;;;27.52;40.27;96542.28;10412325;28;20201;-69
2023/06/11 10:58:57;;;;;;;4.85;3.35;;;;;;;27.65;40.61;96560.59;10411602;28;20592;-69
2023/06/11 11:04:01;;;;;;;6.22;4.00;;;;;;;25.62;42.89;96547.72;10411963;28;20192;-69
2023/06/11 11:09:02;;;;;;;4.97;3.55;;;;;;;26.59;44.54;96617.34;10412023;28;20646;-69
2023/06/11 11:14:03;;;;;;;5.53;3.95;;;;;;;26.59;41.04;96535.94;10411648;28;20188;-69
2023/06/11 11:19:03;;;;;;;7.85;4.00;;;;;;;27.57;40.43;96558.47;10393984;28;20355;-69
2023/06/11 11:24:08;;;;;;;8.93;4.00;;;;;;;28.63;38.29;96536.16;10411369;28;20196;-70
2023/06/11 11:29:09;;;;;;;4.43;3.40;;;;;;;25.73;40.60;96486.91;10411023;28;20220;-68
2023/06/11 11:34:09;;;;;;;6.43;3.92;;;;;;;26.09;40.69;96498.66;10411172;28;20192;-68
2023/06/11 11:39:11;;;;;;;5.00;4.10;;;;;;;27.11;41.18;96566.47;10410927;28;20825;-69
2023/06/11 11:44:14;;;;;;;9.15;3.83;;;;;;;27.04;39.60;96513.75;10411113;28;20562;-68
2023/06/11 11:49:14;;;;;;;7.03;4.05;;;;;;;25.73;41.94;96527.16;10410404;28;20725;-68
2023/06/11 11:54:15;;;;;;;4.93;3.78;;;;;;;26.70;42.12;96561.78;10410689;28;20291;-68
2023/06/11 11:59:21;;;;;;;8.90;3.93;;;;;;;28.08;39.92;96563.81;10410751;28;20212;-68
2023/06/11 12:04:38;;;;;;;7.28;3.90;;;;;;;27.56;37.81;96484.19;10410507;28;20435;-69
2023/06/11 12:09:39;;;;;;;5.88;3.90;;;;;;;28.14;38.55;96520.72;10410644;28;20231;-69
2023/06/11 12:14:40;;;;;;;11.45;4.32;;;;;;;27.95;37.61;96497.03;10418466;28;20188;-68
2023/06/11 12:19:40;;;;;;;5.37;3.60;;;;;;;28.68;36.69;96492.19;10418636;28;20727;-69
2023/06/11 12:24:40;;;;;;;5.53;3.30;;;;;;;29.03;38.42;96544.31;10418236;28;20976;-68
2023/06/11 12:29:41;;;;;;;5.07;3.43;;;;;;;28.21;39.42;96523.91;10418182;28;20981;-69
2023/06/11 12:34:41;;;;;;;7.37;4.23;;;;;;;27.21;38.35;96466.97;10417965;28;20976;-69
2023/06/11 12:39:46;;;;;;;6.13;3.87;;;;;;;28.13;38.98;96508.31;10417857;28;20459;-69
2023/06/11 12:44:47;;;;;;;4.35;3.90;;;;;;;29.08;37.42;96512.72;10415533;28;20455;-69
2023/06/11 12:49:47;;;;;;;4.90;3.63;;;;;;;30.58;34.83;96499.41;10415059;28;20233;-69
2023/06/11 12:54:48;;;;;;;4.40;3.90;;;;;;;28.80;34.47;96396.41;10416329;28;20196;-69
2023/06/11 12:59:48;;;;;;;4.82;3.85;;;;;;;29.90;34.14;96446.44;10415669;28;20471;-69
2023/06/11 13:04:48;;;;;;;8.87;3.90;;;;;;;29.66;34.56;96446.38;10417028;28;20619;-69
2023/06/11 13:09:49;;;;;;;4.70;3.73;;;;;;;31.06;34.39;96500.38;10414106;28;21090;-69
2023/06/11 13:14:49;;;;;;;5.57;3.67;;;;;;;30.91;30.94;96377.75;10416211;28;20972;-69
2023/06/11 13:19:55;;;;;;;6.33;4.00;;;;;;;30.51;34.28;96463.00;10415923;28;20216;-69
2023/06/11 13:24:55;;;;;;;5.90;3.70;;;;;;;30.51;33.55;96453.00;10415872;28;20439;-70
2023/06/11 13:29:56;;;;;;;9.83;4.10;;;;;;;31.64;32.43;96472.13;10414746;28;20286;-69
2023/06/11 13:34:57;;;;;;;8.13;4.27;;;;;;;32.05;31.44;96454.25;10415619;28;20444;-69
2023/06/11 13:39:58;;;;;;;4.28;3.88;;;;;;;31.79;31.80;96452.88;10415251;28;20463;-69
2023/06/11 13:45:02;;;;;;;5.60;4.27;;;;;;;30.61;32.39;96400.66;10415299;28;20224;-69
2023/06/11 13:50:03;;;;;;;5.78;3.28;;;;;;;33.01;30.67;96457.94;10475430;22;20499;-68
2023/06/11 13:55:03;;;;;;;4.30;3.90;;;;;;;33.04;29.42;96414.69;10578976;28;20288;-68
2023/06/11 14:00:05;;;;;;;6.13;4.25;;;;;;;34.04;27.79;96415.34;10581104;28;20216;-67
2023/06/11 14:05:12;;;;;;;6.07;3.88;;;;;;;34.01;29.34;96447.78;10580891;28;20666;-64
2023/06/11 14:10:12;;;;;;;4.07;3.60;;;;;;;34.30;28.17;96439.09;10580823;28;20277;-65
2023/06/11 14:15:13;;;;;;;4.93;3.53;;;;;;;33.95;27.95;96409.06;10580540;28;20431;-65
2023/06/11 14:20:14;;;;;;;4.40;3.63;;;;;;;34.50;28.36;96434.97;10580355;28;20463;-65
2023/06/11 14:25:14;;;;;;;4.70;3.92;;;;;;;34.68;26.64;96413.22;10579766;28;20197;-64
2023/06/11 14:30:14;;;;;;;11.43;3.97;;;;;;;33.27;27.25;96348.72;10579795;28;20205;-64
2023/06/11 14:35:15;;;;;;;5.13;3.97;;;;;;;31.90;29.02;96334.25;10579287;28;20435;-65
2023/06/11 14:40:15;;;;;;;4.80;3.80;;;;;;;31.97;27.98;96304.81;10579326;28;20205;-64
2023/06/11 14:45:16;;;;;;;6.25;3.78;;;;;;;34.26;25.60;96364.72;10579436;28;20216;-64
2023/06/11 14:50:16;;;;;;;6.43;3.90;;;;;;;32.47;27.20;96322.19;10578827;28;20256;-66
2023/06/11 14:55:16;;;;;;;4.10;3.70;;;;;;;32.58;27.93;96358.78;10579512;28;20219;-65
2023/06/11 15:00:17;;;;;;;4.17;3.77;;;;;;;32.82;26.71;96322.41;10579160;28;20213;-65
2023/06/11 15:05:17;;;;;;;5.57;3.95;;;;;;;31.55;27.77;96287.88;10578562;28;20185;-66
2023/06/11 15:10:17;;;;;;;7.63;4.57;;;;;;;32.68;26.50;96311.66;10578387;28;20231;-66
2023/06/11 15:15:18;;;;;;;6.43;5.60;;;;;;;33.98;24.91;96329.63;10578477;28;20463;-65
2023/06/11 15:20:18;;;;;;;12.37;7.00;;;;;;;32.78;25.76;96276.13;10578230;28;20248;-66
2023/06/11 15:25:19;;;;;;;7.47;5.83;;;;;;;32.22;27.55;96299.97;10578065;28;20184;-65
2023/06/11 15:30:19;;;;;;;4.43;4.03;;;;;;;34.11;25.14;96331.41;10577949;28;20454;-65
2023/06/11 15:35:19;;;;;;;5.22;4.53;;;;;;;33.06;26.37;96309.34;10577814;28;20191;-66
2023/06/11 15:40:22;;;;;;;6.95;4.32;;;;;;;33.18;25.74;96295.16;10577844;28;20209;-66
2023/06/11 15:45:22;;;;;;;5.68;4.50;;;;;;;33.12;25.78;96296.41;10576523;28;20671;-65
2023/06/11 15:50:22;;;;;;;5.35;4.20;;;;;;;33.40;24.72;96264.44;10577290;28;20238;-65
2023/06/11 15:55:23;;;;;;;4.95;4.30;;;;;;;30.32;30.73;96319.72;10577689;28;20980;-65
2023/06/11 16:00:23;;;;;;;6.82;4.30;;;;;;;30.15;31.37;96341.84;10576974;28;20212;-65
2023/06/11 16:05:24;;;;;;;5.43;4.60;;;;;;;28.29;33.18;96332.88;10577247;28;20213;-65
2023/06/11 16:10:24;;;;;;;6.27;4.10;;;;;;;27.86;34.61;96353.28;10576923;28;20288;-65
2023/06/11 16:15:24;;;;;;;4.60;4.20;;;;;;;27.08;36.05;96376.09;10577087;28;20431;-63
2023/06/11 16:20:26;;;;;;;5.07;4.32;;;;;;;26.70;36.59;96371.00;10576766;28;20305;-65
2023/06/11 16:25:26;;;;;;;6.15;4.22;;;;;;;26.52;37.55;96404.53;10576761;28;20225;-65
2023/06/11 16:30:27;;;;;;;4.73;4.33;;;;;;;26.21;38.38;96420.56;10576715;28;20210;-65
2023/06/11 16:35:27;;;;;;;8.40;4.30;;;;;;;26.03;36.69;96392.31;10576434;28;20507;-65
2023/06/11 16:40:34;;;;;;;6.60;4.25;;;;;;;25.59;38.70;96414.91;10575335;28;20455;-66
2023/06/11 16:46:03;;;;;;;6.20;4.57;;;;;;;25.87;37.47;96398.69;10580154;28;20221;-66
2023/06/11 16:51:21;;;;;;;6.35;5.10;;;;;;;25.53;40.57;96455.38;10578863;28;20234;-67
2023/06/11 16:56:31;;;;;;;6.68;5.22;;;;;;;25.20;42.27;96484.88;10582643;28;20197;-67
2023/06/11 17:01:36;;;;;;;6.57;5.38;;;;;;;24.62;43.09;96489.97;10537205;28;20210;-67
2023/06/11 17:06:38;;;;;;;6.25;5.65;;;;;;;24.67;43.00;96486.53;10584853;28;20601;-67
2023/06/11 17:11:41;;;;;;;6.20;5.40;;;;;;;24.45;44.35;96511.44;10585547;28;20292;-66
2023/06/11 17:16:42;;;;;;;8.77;5.75;;;;;;;24.04;44.51;96508.25;10583702;28;20182;-66
2023/06/11 17:21:42;;;;;;;6.63;5.85;;;;;;;23.82;46.03;96537.63;10896308;22;20237;-66
2023/06/11 17:26:42;;;;;;;7.80;5.57;;;;;;;23.77;46.62;96550.94;10582772;28;20328;-66
2023/06/11 17:31:43;;;;;;;6.22;5.30;;;;;;;23.09;44.65;96476.91;10582393;28;20214;-66
2023/06/11 17:36:43;;;;;;;8.50;4.75;;;;;;;23.14;45.59;96503.72;10582266;28;20555;-66
2023/06/11 17:41:43;;;;;;;7.28;5.60;;;;;;;23.11;43.61;96461.44;10581994;28;20221;-66
2023/06/11 17:46:45;;;;;;;15.25;10.05;;;;;;;23.12;44.42;96478.28;10581733;28;20222;-66
2023/06/11 17:51:46;;;;;;;21.33;13.98;;;;;;;22.82;46.60;96531.94;10581579;28;20779;-67
2023/06/11 17:56:46;;;;;;;10.60;7.00;;;;;;;22.40;46.81;96520.50;10581334;28;20182;-67
2023/06/11 18:01:47;;;;;;;6.53;5.90;;;;;;;22.09;47.84;96527.03;10581236;28;20583;-67
2023/06/11 18:06:47;;;;;;;5.85;5.20;;;;;;;22.27;47.24;96529.53;10580633;28;20584;-66
2023/06/11 18:11:48;;;;;;;7.03;4.70;;;;;;;22.08;49.10;96568.91;10578980;28;20629;-67
2023/06/11 18:16:48;;;;;;;47.97;33.95;;;;;;;21.66;48.03;96534.34;10583596;28;20603;-65
2023/06/11 18:21:48;;;;;;;8.73;5.50;;;;;;;21.57;49.81;96565.06;10578943;28;20649;-65
2023/06/11 18:26:49;;;;;;;8.77;5.50;;;;;;;21.55;48.72;96543.16;10578912;28;20206;-66
2023/06/11 18:31:49;;;;;;;6.50;5.05;;;;;;;21.31;51.28;96585.72;10578573;28;20625;-65
2023/06/11 18:36:49;;;;;;;6.00;4.90;;;;;;;20.64;52.07;96583.97;10578977;28;20227;-66
2023/06/11 18:41:50;;;;;;;9.75;6.22;;;;;;;20.60;51.79;96588.09;10578391;28;20202;-66
2023/06/11 18:46:50;;;;;;;6.22;5.55;;;;;;;20.31;51.98;96579.81;10573059;28;20217;-63
2023/06/11 18:51:50;;;;;;;6.47;5.82;;;;;;;20.03;53.14;96601.59;10572846;28;20243;-65
2023/06/11 18:56:51;;;;;;;8.15;4.82;;;;;;;19.86;53.02;96605.84;10575811;28;20182;-65
2023/06/11 19:01:51;;;;;;;8.85;4.65;;;;;;;19.47;53.60;96608.56;10576402;28;20290;-64
2023/06/11 19:06:52;;;;;;;10.75;4.70;;;;;;;19.28;54.93;96630.75;10577747;28;20229;-65
2023/06/11 19:11:52;;;;;;;6.70;5.15;;;;;;;19.19;52.53;96575.25;10577792;28;20201;-65
2023/06/11 19:16:52;;;;;;;6.85;4.65;;;;;;;18.97;53.98;96611.13;10577522;28;20210;-65
2023/06/11 19:21:54;;;;;;;9.10;4.45;;;;;;;18.72;54.58;96622.44;10576981;28;20361;-65
2023/06/11 19:26:55;;;;;;;7.68;4.60;;;;;;;18.20;60.00;96703.78;10577298;28;20226;-65
2023/06/11 19:31:55;;;;;;;6.70;5.18;;;;;;;17.61;63.05;96752.00;10558771;28;20205;-65
2023/06/11 19:36:56;;;;;;;7.72;4.80;;;;;;;17.00;65.49;96766.03;10577384;28;20197;-65
2023/06/11 19:41:56;;;;;;;10.48;5.78;;;;;;;16.35;69.96;96789.16;10577120;28;20274;-64
2023/06/11 19:46:56;;;;;;;7.95;5.63;;;;;;;15.92;72.24;96766.22;10577163;28;20201;-65
2023/06/11 19:51:57;;;;;;;11.32;5.95;;;;;;;15.62;73.60;96757.56;10585944;22;20248;-65
2023/06/11 19:56:57;;;;;;;9.05;6.72;;;;;;;15.28;75.48;96762.50;10572222;28;20264;-68
2023/06/11 20:01:57;;;;;;;6.95;5.47;;;;;;;15.19;76.73;96763.59;10575526;28;20217;-66
2023/06/11 20:06:58;;;;;;;13.20;5.53;;;;;;;14.85;78.44;96778.16;10576506;28;20232;-66
2023/06/11 20:12:05;;;;;;;12.02;6.18;;;;;;;14.80;79.16;96783.16;10576169;28;20244;-65
2023/06/11 20:17:05;;;;;;;7.18;5.72;;;;;;;14.68;78.76;96779.34;10576532;28;20310;-66
2023/06/11 20:22:06;;;;;;;10.18;5.30;;;;;;;14.49;80.27;96785.94;10576279;28;20282;-67
2023/06/11 20:27:06;;;;;;;14.85;6.68;;;;;;;14.28;81.33;96788.22;10576329;28;20227;-66
2023/06/11 20:32:07;;;;;;;9.90;6.43;;;;;;;14.11;82.62;96793.84;10579046;28;20210;-66
2023/06/11 20:37:08;;;;;;;8.98;6.07;;;;;;;14.03;83.24;96799.97;10584253;28;20238;-66
2023/06/11 20:42:08;;;;;;;11.07;6.47;;;;;;;13.86;84.31;96796.66;10583722;28;20621;-66
2023/06/11 20:47:09;;;;;;;8.48;6.10;;;;;;;13.70;85.28;96810.72;10583823;28;20320;-66
2023/06/11 20:52:09;;;;;;;13.10;6.57;;;;;;;13.72;85.47;96801.66;10583236;28;20249;-66
2023/06/11 20:57:10;;;;;;;9.85;6.50;;;;;;;13.77;84.66;96787.97;10583638;28;20194;-66
2023/06/11 21:02:10;;;;;;;6.60;5.90;;;;;;;13.49;86.54;96806.06;10582783;28;20206;-66
2023/06/11 21:07:11;;;;;;;8.13;6.22;;;;;;;13.48;86.99;96805.25;10583285;28;20241;-66
2023/06/11 21:12:12;;;;;;;9.23;6.03;;;;;;;13.41;87.50;96809.56;10582980;28;20225;-66
2023/06/11 21:17:12;;;;;;;10.25;6.78;;;;;;;13.38;86.93;96807.25;10583076;28;20286;-66
2023/06/11 21:22:12;;;;;;;11.98;5.78;;;;;;;13.30;87.84;96818.63;10582659;28;20305;-66
2023/06/11 21:27:13;;;;;;;6.70;6.00;;;;;;;13.18;88.49;96815.56;10581766;28;20217;-66
2023/06/11 21:32:13;;;;;;;9.10;5.72;;;;;;;13.06;89.78;96822.16;10582556;28;20201;-66
2023/06/11 21:37:13;;;;;;;16.13;7.15;;;;;;;12.96;90.84;96816.28;10581935;28;20312;-66
2023/06/11 21:42:14;;;;;;;8.50;6.18;;;;;;;12.93;91.02;96819.25;10580452;28;20364;-66
2023/06/11 21:47:14;;;;;;;7.30;5.63;;;;;;;12.82;91.51;96815.16;10581494;28;20316;-66
2023/06/11 21:52:21;;;;;;;8.27;5.63;;;;;;;12.79;91.48;96811.06;10581352;28;20234;-66
2023/06/11 21:57:21;;;;;;;10.50;5.80;;;;;;;12.76;90.69;96806.13;10581734;28;20252;-66
2023/06/11 22:02:21;;;;;;;10.02;5.57;;;;;;;12.67;91.08;96802.69;10580984;28;20275;-66
2023/06/11 22:07:22;;;;;;;9.80;5.57;;;;;;;12.53;91.40;96795.50;10581114;28;20230;-66
2023/06/11 22:12:23;;;;;;;7.85;5.65;;;;;;;12.56;91.50;96800.44;10580550;28;20220;-66
2023/06/11 22:17:32;;;;;;;8.07;5.50;;;;;;;12.46;91.58;96803.22;10580763;28;20182;-66
2023/06/11 22:22:39;;;;;;;8.30;5.90;;;;;;;12.31;92.49;96804.88;10580305;28;20210;-67
2023/06/11 22:27:40;;;;;;;14.18;6.20;;;;;;;12.19;93.01;96803.56;10580187;28;20214;-67
2023/06/11 22:32:41;;;;;;;7.13;5.22;;;;;;;12.23;92.26;96799.63;10579876;28;20225;-67
2023/06/11 22:37:41;;;;;;;7.40;6.30;;;;;;;12.23;91.56;96803.06;10580033;28;20197;-66
2023/06/11 22:42:41;;;;;;;6.28;5.10;;;;;;;12.11;91.86;96807.00;10579298;28;20217;-67
2023/06/11 22:47:42;;;;;;;12.82;5.88;;;;;;;11.92;93.57;96806.34;10579388;28;20314;-66
2023/06/11 22:52:43;;;;;;;10.40;5.70;;;;;;;11.93;92.84;96800.13;10579023;28;20237;-67
2023/06/11 22:57:43;;;;;;;8.05;5.15;;;;;;;11.96;92.00;96793.72;10605495;27;20204;-67
2023/06/11 23:02:47;;;;;;;8.85;5.63;;;;;;;11.86;91.77;96800.91;10621293;27;20213;-66
2023/06/11 23:07:49;;;;;;;9.20;5.63;;;;;;;11.81;92.31;96803.16;10621090;27;20705;-66
2023/06/11 23:12:49;;;;;;;6.47;5.00;;;;;;;11.74;92.80;96809.06;10621018;27;20573;-67
2023/06/11 23:17:53;;;;;;;7.38;5.70;;;;;;;11.73;92.14;96807.44;10620851;27;20185;-67
2023/06/11 23:22:56;;;;;;;9.90;5.60;;;;;;;11.56;92.40;96811.00;10620439;27;20683;-66